createdAt,value
2016-08-15T00:00:48.659Z,0
2016-08-15T00:01:47.380Z,0
2016-08-15T00:02:49.426Z,0
2016-08-15T00:03:47.283Z,0
2016-08-15T00:04:48.031Z,0
2016-08-15T00:05:47.430Z,0
2016-08-15T00:06:47.435Z,0
2016-08-15T00:07:48.844Z,0
2016-08-15T00:08:48.826Z,0
2016-08-15T00:09:48.183Z,0
2016-08-15T00:10:49.085Z,0
2016-08-15T00:11:47.469Z,0
2016-08-15T00:12:47.534Z,0
2016-08-15T00:13:48.911Z,0
2016-08-15T00:14:48.263Z,0
2016-08-15T00:15:48.956Z,0
2016-08-15T00:16:49.086Z,0
2016-08-15T00:17:49.704Z,0
2016-08-15T00:18:48.324Z,0
2016-08-15T00:19:47.715Z,0
2016-08-15T00:20:47.682Z,0
2016-08-15T00:21:46.956Z,0
2016-08-15T00:22:48.404Z,0
2016-08-15T00:23:49.151Z,0
2016-08-15T00:24:47.155Z,0
2016-08-15T00:25:47.844Z,0
2016-08-15T00:26:49.185Z,0
2016-08-15T00:27:49.413Z,0
2016-08-15T00:28:47.794Z,0
2016-08-15T00:29:48.585Z,0
2016-08-15T00:30:47.865Z,0
2016-08-15T00:31:48.621Z,0
2016-08-15T00:32:49.992Z,0
2016-08-15T00:33:47.901Z,0
2016-08-15T00:34:49.356Z,0
2016-08-15T00:35:50.113Z,0
2016-08-15T00:36:49.445Z,0
2016-08-15T00:37:47.991Z,0
2016-08-15T00:38:48.866Z,0
2016-08-15T00:39:49.445Z,0
2016-08-15T00:40:48.828Z,0
2016-08-15T00:41:48.777Z,0
2016-08-15T00:42:47.434Z,0
2016-08-15T00:43:49.511Z,0
2016-08-15T00:44:47.428Z,0
2016-08-15T00:45:50.279Z,0
2016-08-15T00:46:49.572Z,0
2016-08-15T00:47:48.277Z,0
2016-08-15T00:48:48.199Z,0
2016-08-15T00:49:48.218Z,0
2016-08-15T00:50:49.686Z,0
2016-08-15T00:51:49.803Z,0
2016-08-15T00:52:48.985Z,0
2016-08-15T00:53:49.846Z,0
2016-08-15T00:54:48.378Z,0
2016-08-15T00:55:49.765Z,0
2016-08-15T00:56:49.792Z,0
2016-08-15T00:57:49.100Z,0
2016-08-15T00:58:48.416Z,0
2016-08-15T00:59:49.132Z,0
2016-08-15T01:00:50.567Z,0
2016-08-15T01:01:49.169Z,0
2016-08-15T01:02:49.901Z,0
2016-08-15T01:03:49.935Z,0
2016-08-15T01:04:49.930Z,0
2016-08-15T01:05:49.936Z,0
2016-08-15T01:06:49.363Z,0
2016-08-15T01:07:49.991Z,0
2016-08-15T01:08:50.017Z,0
2016-08-15T01:09:49.336Z,0
2016-08-15T01:10:50.054Z,0
2016-08-15T01:11:50.074Z,0
2016-08-15T01:12:50.104Z,0
2016-08-15T01:13:50.815Z,0
2016-08-15T01:14:49.427Z,0
2016-08-15T01:15:49.497Z,0
2016-08-15T01:16:50.897Z,0
2016-08-15T01:17:50.228Z,0
2016-08-15T01:18:50.973Z,0
2016-08-15T01:19:50.399Z,0
2016-08-15T01:20:50.260Z,0
2016-08-15T01:21:50.324Z,0
2016-08-15T01:22:50.307Z,0
2016-08-15T01:23:49.605Z,0
2016-08-15T01:24:51.066Z,0
2016-08-15T01:25:49.666Z,0
2016-08-15T01:26:49.725Z,0
2016-08-15T01:27:48.981Z,0
2016-08-15T01:28:49.012Z,0
2016-08-15T01:29:50.446Z,0
2016-08-15T01:30:50.494Z,0
2016-08-15T01:31:50.486Z,0
2016-08-15T01:32:49.795Z,0
2016-08-15T01:33:50.526Z,0
2016-08-15T01:34:50.546Z,0
2016-08-15T01:35:50.551Z,0
2016-08-15T01:36:50.583Z,0
2016-08-15T01:37:50.603Z,0
2016-08-15T01:38:50.636Z,0
2016-08-15T01:39:50.026Z,0
2016-08-15T01:40:49.942Z,0
2016-08-15T01:41:50.003Z,0
2016-08-15T01:42:49.271Z,0
2016-08-15T01:43:50.716Z,0
2016-08-15T01:44:50.041Z,0
2016-08-15T01:45:51.442Z,0
2016-08-15T01:46:50.782Z,0
2016-08-15T01:47:50.085Z,0
2016-08-15T01:48:50.114Z,0
2016-08-15T01:49:49.506Z,0
2016-08-15T01:50:50.854Z,0
2016-08-15T01:51:51.605Z,0
2016-08-15T01:52:50.166Z,0
2016-08-15T01:53:50.195Z,0
2016-08-15T01:54:50.345Z,0
2016-08-15T01:55:50.233Z,0
2016-08-15T01:56:50.376Z,0
2016-08-15T01:57:49.585Z,0
2016-08-15T01:58:50.313Z,0
2016-08-15T01:59:50.323Z,0
2016-08-15T02:00:50.351Z,0
2016-08-15T02:01:50.392Z,0
2016-08-15T02:02:48.968Z,0
2016-08-15T02:03:51.803Z,0
2016-08-15T02:04:49.700Z,0
2016-08-15T02:05:51.139Z,0
2016-08-15T02:06:50.451Z,0
2016-08-15T02:07:49.904Z,0
2016-08-15T02:08:51.186Z,0
2016-08-15T02:09:51.480Z,0
2016-08-15T02:10:51.925Z,0
2016-08-15T02:11:50.556Z,0
2016-08-15T02:12:50.643Z,0
2016-08-15T02:13:52.075Z,0
2016-08-15T02:14:51.327Z,0
2016-08-15T02:15:50.012Z,0
2016-08-15T02:16:52.065Z,0
2016-08-15T02:17:52.091Z,0
2016-08-15T02:18:51.459Z,0
2016-08-15T02:19:50.710Z,0
2016-08-15T02:20:51.631Z,0
2016-08-15T02:21:50.764Z,0
2016-08-15T02:22:50.143Z,0
2016-08-15T02:23:50.777Z,0
2016-08-15T02:24:51.490Z,0
2016-08-15T02:25:50.824Z,0
2016-08-15T02:26:51.003Z,0
2016-08-15T02:27:52.271Z,0
2016-08-15T02:28:51.585Z,0
2016-08-15T02:29:50.204Z,0
2016-08-15T02:30:51.642Z,0
2016-08-15T02:31:51.732Z,0
2016-08-15T02:32:50.249Z,0
2016-08-15T02:33:51.159Z,0
2016-08-15T02:34:52.412Z,0
2016-08-15T02:35:51.749Z,0
2016-08-15T02:36:50.343Z,0
2016-08-15T02:37:52.573Z,0
2016-08-15T02:38:52.485Z,0
2016-08-15T02:39:51.090Z,0
2016-08-15T02:40:52.532Z,0
2016-08-15T02:41:51.164Z,0
2016-08-15T02:42:50.452Z,0
2016-08-15T02:43:50.471Z,0
2016-08-15T02:44:51.921Z,0
2016-08-15T02:45:50.505Z,0
2016-08-15T02:46:52.008Z,0
2016-08-15T02:47:50.552Z,0
2016-08-15T02:48:52.020Z,0
2016-08-15T02:49:51.305Z,0
2016-08-15T02:50:50.609Z,0
2016-08-15T02:51:50.699Z,0
2016-08-15T02:52:50.662Z,0
2016-08-15T02:53:51.502Z,0
2016-08-15T02:54:52.100Z,0
2016-08-15T02:55:50.770Z,0
2016-08-15T02:56:52.135Z,0
2016-08-15T02:57:51.461Z,0
2016-08-15T02:58:51.462Z,0
2016-08-15T02:59:52.908Z,0
2016-08-15T03:00:52.224Z,0
2016-08-15T03:01:51.520Z,0
2016-08-15T03:02:52.270Z,0
2016-08-15T03:03:51.677Z,0
2016-08-15T03:04:50.988Z,0
2016-08-15T03:05:51.655Z,0
2016-08-15T03:06:50.971Z,0
2016-08-15T03:07:52.377Z,0
2016-08-15T03:08:52.378Z,0
2016-08-15T03:09:51.039Z,0
2016-08-15T03:10:53.142Z,0
2016-08-15T03:11:51.743Z,0
2016-08-15T03:12:52.601Z,0
2016-08-15T03:13:52.023Z,0
2016-08-15T03:14:52.715Z,0
2016-08-15T03:15:52.513Z,0
2016-08-15T03:16:53.270Z,0
2016-08-15T03:17:52.562Z,0
2016-08-15T03:18:51.155Z,0
2016-08-15T03:19:52.722Z,0
2016-08-15T03:20:51.920Z,0
2016-08-15T03:21:51.921Z,0
2016-08-15T03:22:52.657Z,0
2016-08-15T03:23:51.964Z,0
2016-08-15T03:24:51.290Z,0
2016-08-15T03:25:52.784Z,0
2016-08-15T03:26:52.732Z,0
2016-08-15T03:27:51.326Z,0
2016-08-15T03:28:52.760Z,0
2016-08-15T03:29:50.742Z,0
2016-08-15T03:30:52.797Z,0
2016-08-15T03:31:52.115Z,0
2016-08-15T03:32:52.850Z,0
2016-08-15T03:33:52.178Z,0
2016-08-15T03:34:52.271Z,0
2016-08-15T03:35:51.498Z,0
2016-08-15T03:36:52.309Z,0
2016-08-15T03:37:51.516Z,0
2016-08-15T03:38:52.277Z,0
2016-08-15T03:39:52.970Z,0
2016-08-15T03:40:51.591Z,0
2016-08-15T03:41:52.997Z,0
2016-08-15T03:42:51.606Z,0
2016-08-15T03:43:51.638Z,0
2016-08-15T03:44:53.055Z,0
2016-08-15T03:45:51.779Z,0
2016-08-15T03:46:53.817Z,0
2016-08-15T03:47:53.135Z,0
2016-08-15T03:48:52.439Z,0
2016-08-15T03:49:52.508Z,0
2016-08-15T03:50:51.790Z,0
2016-08-15T03:51:52.521Z,0
2016-08-15T03:52:51.881Z,5
2016-08-15T03:53:53.346Z,5
2016-08-15T03:54:51.870Z,5
2016-08-15T03:55:51.882Z,5
2016-08-15T03:56:52.659Z,5
2016-08-15T03:57:53.347Z,5
2016-08-15T03:58:52.698Z,5
2016-08-15T03:59:53.350Z,5
2016-08-15T04:00:53.519Z,10
2016-08-15T04:01:52.784Z,10
2016-08-15T04:02:53.482Z,10
2016-08-15T04:03:52.744Z,10
2016-08-15T04:04:53.506Z,10
2016-08-15T04:05:53.504Z,15
2016-08-15T04:06:53.506Z,15
2016-08-15T04:07:54.242Z,15
2016-08-15T04:08:52.131Z,15
2016-08-15T04:09:53.569Z,15
2016-08-15T04:10:52.882Z,20
2016-08-15T04:11:52.987Z,20
2016-08-15T04:12:52.920Z,20
2016-08-15T04:13:52.952Z,25
2016-08-15T04:14:53.655Z,25
2016-08-15T04:15:52.970Z,25
2016-08-15T04:16:53.697Z,25
2016-08-15T04:17:53.080Z,30
2016-08-15T04:18:53.751Z,30
2016-08-15T04:19:54.563Z,30
2016-08-15T04:20:53.762Z,35
2016-08-15T04:21:53.111Z,35
2016-08-15T04:22:53.832Z,40
2016-08-15T04:23:53.130Z,40
2016-08-15T04:24:53.218Z,40
2016-08-15T04:25:53.251Z,45
2016-08-15T04:26:53.194Z,45
2016-08-15T04:27:53.217Z,45
2016-08-15T04:28:53.281Z,50
2016-08-15T04:29:53.980Z,50
2016-08-15T04:30:52.559Z,55
2016-08-15T04:31:54.719Z,55
2016-08-15T04:32:53.404Z,55
2016-08-15T04:33:54.015Z,60
2016-08-15T04:34:54.062Z,60
2016-08-15T04:35:52.662Z,60
2016-08-15T04:36:53.389Z,65
2016-08-15T04:37:54.121Z,65
2016-08-15T04:38:54.124Z,70
2016-08-15T04:39:54.881Z,70
2016-08-15T04:40:53.471Z,70
2016-08-15T04:41:53.469Z,75
2016-08-15T04:42:52.916Z,75
2016-08-15T04:43:52.809Z,75
2016-08-15T04:44:52.900Z,80
2016-08-15T04:45:54.973Z,75
2016-08-15T04:46:54.445Z,80
2016-08-15T04:47:53.600Z,80
2016-08-15T04:48:53.082Z,85
2016-08-15T04:49:55.202Z,90
2016-08-15T04:50:54.410Z,95
2016-08-15T04:51:53.722Z,100
2016-08-15T04:52:55.231Z,105
2016-08-15T04:53:53.704Z,110
2016-08-15T04:54:55.360Z,110
2016-08-15T04:55:54.473Z,115
2016-08-15T04:56:53.048Z,115
2016-08-15T04:57:54.730Z,120
2016-08-15T04:58:55.373Z,125
2016-08-15T04:59:53.844Z,125
2016-08-15T05:00:54.622Z,120
2016-08-15T05:01:53.275Z,125
2016-08-15T05:02:52.572Z,120
2016-08-15T05:03:54.001Z,115
2016-08-15T05:04:54.706Z,110
2016-08-15T05:05:54.809Z,110
2016-08-15T05:06:55.391Z,110
2016-08-15T05:07:53.297Z,110
2016-08-15T05:08:55.430Z,110
2016-08-15T05:09:54.837Z,105
2016-08-15T05:10:54.781Z,105
2016-08-15T05:11:54.051Z,105
2016-08-15T05:12:54.810Z,110
2016-08-15T05:13:55.526Z,110
2016-08-15T05:14:55.553Z,110
2016-08-15T05:15:54.170Z,110
2016-08-15T05:16:55.608Z,110
2016-08-15T05:17:54.911Z,110
2016-08-15T05:18:54.910Z,110
2016-08-15T05:19:54.250Z,115
2016-08-15T05:20:54.970Z,115
2016-08-15T05:21:52.872Z,110
2016-08-15T05:22:54.322Z,110
2016-08-15T05:23:55.032Z,110
2016-08-15T05:24:54.421Z,115
2016-08-15T05:25:54.455Z,115
2016-08-15T05:26:54.673Z,115
2016-08-15T05:27:53.715Z,120
2016-08-15T05:28:55.830Z,120
2016-08-15T05:29:55.367Z,120
2016-08-15T05:30:55.194Z,120
2016-08-15T05:31:55.350Z,125
2016-08-15T05:32:54.510Z,125
2016-08-15T05:33:54.060Z,125
2016-08-15T05:34:54.559Z,125
2016-08-15T05:35:53.978Z,125
2016-08-15T05:36:55.317Z,125
2016-08-15T05:37:55.330Z,125
2016-08-15T05:38:54.941Z,130
2016-08-15T05:39:54.021Z,130
2016-08-15T05:40:55.580Z,135
2016-08-15T05:41:55.408Z,135
2016-08-15T05:42:54.853Z,140
2016-08-15T05:43:55.466Z,145
2016-08-15T05:44:54.124Z,145
2016-08-15T05:45:54.802Z,155
2016-08-15T05:46:56.303Z,150
2016-08-15T05:47:54.230Z,155
2016-08-15T05:48:54.846Z,155
2016-08-15T05:49:55.039Z,160
2016-08-15T05:50:55.614Z,160
2016-08-15T05:51:54.932Z,160
2016-08-15T05:52:54.936Z,160
2016-08-15T05:53:55.681Z,160
2016-08-15T05:54:55.690Z,160
2016-08-15T05:55:55.087Z,160
2016-08-15T05:56:55.102Z,160
2016-08-15T05:57:55.777Z,165
2016-08-15T05:58:54.360Z,165
2016-08-15T05:59:55.789Z,165
2016-08-15T06:00:55.117Z,165
2016-08-15T06:01:55.121Z,165
2016-08-15T06:02:55.860Z,165
2016-08-15T06:03:55.874Z,165
2016-08-15T06:04:54.504Z,165
2016-08-15T06:05:55.940Z,165
2016-08-15T06:06:55.339Z,165
2016-08-15T06:07:55.971Z,165
2016-08-15T06:08:56.701Z,165
2016-08-15T06:09:56.010Z,165
2016-08-15T06:10:55.340Z,160
2016-08-15T06:11:54.740Z,150
2016-08-15T06:12:54.740Z,145
2016-08-15T06:13:56.202Z,135
2016-08-15T06:14:56.160Z,125
2016-08-15T06:15:55.469Z,120
2016-08-15T06:16:56.892Z,115
2016-08-15T06:17:55.622Z,110
2016-08-15T06:18:55.526Z,110
2016-08-15T06:19:55.548Z,105
2016-08-15T06:20:55.601Z,105
2016-08-15T06:21:54.870Z,105
2016-08-15T06:22:56.322Z,105
2016-08-15T06:23:54.929Z,105
2016-08-15T06:24:57.163Z,100
2016-08-15T06:25:56.393Z,100
2016-08-15T06:26:54.993Z,100
2016-08-15T06:27:55.720Z,100
2016-08-15T06:28:55.809Z,100
2016-08-15T06:29:54.371Z,100
2016-08-15T06:30:55.898Z,100
2016-08-15T06:31:55.830Z,100
2016-08-15T06:32:55.145Z,100
2016-08-15T06:33:55.875Z,100
2016-08-15T06:34:55.891Z,100
2016-08-15T06:35:56.611Z,100
2016-08-15T06:36:57.361Z,105
2016-08-15T06:37:55.252Z,105
2016-08-15T06:38:55.999Z,105
2016-08-15T06:39:56.014Z,105
2016-08-15T06:40:56.024Z,105
2016-08-15T06:41:56.152Z,105
2016-08-15T06:42:56.074Z,100
2016-08-15T06:43:56.202Z,105
2016-08-15T06:44:56.121Z,115
2016-08-15T06:45:56.142Z,125
2016-08-15T06:46:56.170Z,130
2016-08-15T06:47:56.975Z,135
2016-08-15T06:48:55.569Z,135
2016-08-15T06:49:57.660Z,135
2016-08-15T06:50:55.562Z,130
2016-08-15T06:51:56.294Z,135
2016-08-15T06:52:56.388Z,135
2016-08-15T06:53:57.731Z,140
2016-08-15T06:54:57.120Z,150
2016-08-15T06:55:56.442Z,160
2016-08-15T06:56:56.402Z,165
2016-08-15T06:57:57.814Z,160
2016-08-15T06:58:57.330Z,175
2016-08-15T06:59:55.910Z,175
2016-08-15T07:00:56.552Z,180
2016-08-15T07:01:55.923Z,185
2016-08-15T07:02:56.541Z,190
2016-08-15T07:03:58.052Z,195
2016-08-15T07:04:57.492Z,205
2016-08-15T07:05:56.929Z,205
2016-08-15T07:06:56.724Z,210
2016-08-15T07:07:57.402Z,215
2016-08-15T07:08:57.391Z,220
2016-08-15T07:09:57.539Z,230
2016-08-15T07:10:57.402Z,235
2016-08-15T07:11:56.722Z,235
2016-08-15T07:12:57.625Z,250
2016-08-15T07:13:57.492Z,265
2016-08-15T07:14:56.122Z,265
2016-08-15T07:15:57.557Z,265
2016-08-15T07:16:56.151Z,265
2016-08-15T07:17:57.591Z,265
2016-08-15T07:18:57.605Z,255
2016-08-15T07:19:58.329Z,245
2016-08-15T07:20:57.630Z,235
2016-08-15T07:21:57.681Z,240
2016-08-15T07:22:57.726Z,240
2016-08-15T07:23:57.141Z,240
2016-08-15T07:24:58.520Z,240
2016-08-15T07:25:58.551Z,255
2016-08-15T07:26:57.805Z,270
2016-08-15T07:27:57.977Z,290
2016-08-15T07:28:57.940Z,310
2016-08-15T07:29:57.222Z,330
2016-08-15T07:30:57.978Z,345
2016-08-15T07:31:58.619Z,350
2016-08-15T07:32:56.633Z,360
2016-08-15T07:33:57.972Z,380
2016-08-15T07:34:58.706Z,400
2016-08-15T07:35:57.329Z,420
2016-08-15T07:36:58.052Z,435
2016-08-15T07:37:57.532Z,440
2016-08-15T07:38:58.242Z,440
2016-08-15T07:39:56.853Z,430
2016-08-15T07:40:58.948Z,430
2016-08-15T07:41:58.299Z,430
2016-08-15T07:42:57.564Z,435
2016-08-15T07:43:58.314Z,440
2016-08-15T07:44:57.567Z,445
2016-08-15T07:45:57.656Z,450
2016-08-15T07:46:58.312Z,445
2016-08-15T07:47:58.302Z,425
2016-08-15T07:48:59.021Z,415
2016-08-15T07:49:58.402Z,410
2016-08-15T07:50:57.671Z,415
2016-08-15T07:51:57.714Z,415
2016-08-15T07:52:56.314Z,420
2016-08-15T07:53:57.753Z,425
2016-08-15T07:54:57.072Z,425
2016-08-15T07:55:59.223Z,460
2016-08-15T07:56:59.233Z,480
2016-08-15T07:57:59.234Z,485
2016-08-15T07:58:57.880Z,495
2016-08-15T07:59:58.595Z,500
2016-08-15T08:00:58.083Z,495
2016-08-15T08:01:58.647Z,485
2016-08-15T08:02:57.970Z,510
2016-08-15T08:03:59.402Z,530
2016-08-15T08:04:58.020Z,540
2016-08-15T08:05:59.469Z,540
2016-08-15T08:06:58.081Z,540
2016-08-15T08:07:57.375Z,545
2016-08-15T08:08:58.117Z,560
2016-08-15T08:09:57.528Z,560
2016-08-15T08:10:58.156Z,550
2016-08-15T08:11:58.254Z,545
2016-08-15T08:12:58.192Z,580
2016-08-15T08:13:58.239Z,600
2016-08-15T08:14:58.973Z,610
2016-08-15T08:15:57.732Z,620
2016-08-15T08:16:57.732Z,625
2016-08-15T08:17:57.789Z,620
2016-08-15T08:18:59.081Z,605
2016-08-15T08:19:58.387Z,590
2016-08-15T08:20:59.167Z,580
2016-08-15T08:21:59.862Z,570
2016-08-15T08:22:58.479Z,570
2016-08-15T08:23:57.789Z,575
2016-08-15T08:24:58.530Z,585
2016-08-15T08:25:59.271Z,595
2016-08-15T08:26:58.571Z,595
2016-08-15T08:27:58.600Z,595
2016-08-15T08:28:58.627Z,595
2016-08-15T08:29:59.361Z,600
2016-08-15T08:30:58.673Z,605
2016-08-15T08:31:58.806Z,610
2016-08-15T08:32:59.443Z,600
2016-08-15T08:34:00.452Z,610
2016-08-15T08:34:58.779Z,615
2016-08-15T08:35:58.834Z,615
2016-08-15T08:36:59.560Z,615
2016-08-15T08:37:59.581Z,630
2016-08-15T08:38:59.633Z,640
2016-08-15T08:40:00.410Z,650
2016-08-15T08:40:58.262Z,665
2016-08-15T08:41:59.682Z,675
2016-08-15T08:42:59.774Z,680
2016-08-15T08:43:59.029Z,675
2016-08-15T08:44:58.344Z,695
2016-08-15T08:45:59.091Z,685
2016-08-15T08:46:59.853Z,670
2016-08-15T08:47:59.829Z,660
2016-08-15T08:48:59.158Z,665
2016-08-15T08:49:59.318Z,675
2016-08-15T08:51:00.855Z,670
2016-08-15T08:51:59.951Z,665
2016-08-15T08:53:00.780Z,650
2016-08-15T08:53:59.332Z,650
2016-08-15T08:54:59.338Z,655
2016-08-15T08:55:59.412Z,665
2016-08-15T08:57:00.071Z,675
2016-08-15T08:57:59.481Z,675
2016-08-15T08:59:00.151Z,680
2016-08-15T08:59:59.472Z,695
2016-08-15T09:00:59.482Z,690
2016-08-15T09:01:59.591Z,685
2016-08-15T09:02:59.590Z,685
2016-08-15T09:04:00.279Z,685
2016-08-15T09:05:00.466Z,695
2016-08-15T09:05:59.692Z,700
2016-08-15T09:07:00.381Z,705
2016-08-15T09:07:59.708Z,710
2016-08-15T09:08:59.723Z,710
2016-08-15T09:10:00.501Z,710
2016-08-15T09:11:01.231Z,710
2016-08-15T09:12:01.212Z,725
2016-08-15T09:13:00.533Z,725
2016-08-15T09:14:01.293Z,730
2016-08-15T09:14:59.890Z,730
2016-08-15T09:15:59.926Z,735
2016-08-15T09:16:59.951Z,730
2016-08-15T09:18:00.838Z,740
2016-08-15T09:19:00.710Z,730
2016-08-15T09:20:00.911Z,730
2016-08-15T09:21:00.760Z,735
2016-08-15T09:22:00.255Z,745
2016-08-15T09:23:00.159Z,760
2016-08-15T09:24:01.008Z,750
2016-08-15T09:25:00.934Z,735
2016-08-15T09:26:00.191Z,725
2016-08-15T09:27:00.306Z,705
2016-08-15T09:27:59.621Z,685
2016-08-15T09:29:00.270Z,645
2016-08-15T09:30:00.306Z,610
2016-08-15T09:31:00.373Z,595
2016-08-15T09:32:01.789Z,560
2016-08-15T09:33:00.402Z,540
2016-08-15T09:34:01.248Z,520
2016-08-15T09:35:01.159Z,505
2016-08-15T09:36:01.212Z,495
2016-08-15T09:37:01.213Z,495
2016-08-15T09:38:00.532Z,500
2016-08-15T09:39:00.547Z,505
2016-08-15T09:40:00.602Z,510
2016-08-15T09:41:00.631Z,520
2016-08-15T09:41:59.950Z,525
2016-08-15T09:43:00.001Z,525
2016-08-15T09:44:00.721Z,515
2016-08-15T09:45:02.151Z,510
2016-08-15T09:46:00.082Z,515
2016-08-15T09:47:00.804Z,530
2016-08-15T09:48:00.122Z,540
2016-08-15T09:49:00.866Z,545
2016-08-15T09:50:00.163Z,555
2016-08-15T09:51:00.896Z,565
2016-08-15T09:52:00.936Z,575
2016-08-15T09:53:01.748Z,585
2016-08-15T09:54:01.051Z,590
2016-08-15T09:55:02.513Z,600
2016-08-15T09:56:02.462Z,605
2016-08-15T09:57:00.430Z,605
2016-08-15T09:58:02.629Z,600
2016-08-15T09:59:00.673Z,585
2016-08-15T10:00:02.633Z,580
2016-08-15T10:01:01.874Z,575
2016-08-15T10:02:01.192Z,555
2016-08-15T10:03:01.951Z,535
2016-08-15T10:04:01.971Z,520
2016-08-15T10:05:00.587Z,510
2016-08-15T10:06:00.694Z,495
2016-08-15T10:07:01.458Z,475
2016-08-15T10:08:01.398Z,445
2016-08-15T10:09:02.850Z,415
2016-08-15T10:10:02.125Z,395
2016-08-15T10:11:02.164Z,380
2016-08-15T10:12:01.483Z,380
2016-08-15T10:13:02.923Z,385
2016-08-15T10:14:02.261Z,390
2016-08-15T10:15:03.071Z,400
2016-08-15T10:16:01.611Z,410
2016-08-15T10:17:00.910Z,415
2016-08-15T10:18:00.238Z,415
2016-08-15T10:20:01.714Z,465
2016-08-15T10:21:03.151Z,515
2016-08-15T10:22:01.842Z,555
2016-08-15T10:23:01.795Z,590
2016-08-15T10:24:01.804Z,595
2016-08-15T10:25:01.141Z,585
2016-08-15T10:26:02.575Z,565
2016-08-15T10:27:02.651Z,540
2016-08-15T10:28:02.632Z,535
2016-08-15T10:29:01.928Z,520
2016-08-15T10:30:02.686Z,510
2016-08-15T10:31:03.572Z,500
2016-08-15T10:32:01.413Z,490
2016-08-15T10:33:02.792Z,485
2016-08-15T10:34:03.486Z,490
2016-08-15T10:35:02.090Z,490
2016-08-15T10:36:02.922Z,480
2016-08-15T10:37:02.925Z,475
2016-08-15T10:38:02.249Z,470
2016-08-15T10:39:03.611Z,475
2016-08-15T10:40:02.272Z,485
2016-08-15T10:41:02.971Z,480
2016-08-15T10:42:03.041Z,465
2016-08-15T10:43:01.011Z,455
2016-08-15T10:44:02.346Z,430
2016-08-15T10:45:01.651Z,425
2016-08-15T10:46:02.373Z,425
2016-08-15T10:47:03.840Z,425
2016-08-15T10:48:03.202Z,420
2016-08-15T10:49:02.557Z,420
2016-08-15T10:50:01.909Z,415
2016-08-15T10:51:03.335Z,415
2016-08-15T10:52:03.233Z,425
2016-08-15T10:53:03.318Z,435
2016-08-15T10:54:03.321Z,460
2016-08-15T10:55:02.641Z,485
2016-08-15T10:56:04.081Z,495
2016-08-15T10:57:03.382Z,515
2016-08-15T10:58:03.617Z,530
2016-08-15T10:59:03.440Z,530
2016-08-15T11:00:03.171Z,515
2016-08-15T11:01:03.484Z,510
2016-08-15T11:02:02.105Z,515
2016-08-15T11:03:03.536Z,535
2016-08-15T11:04:02.865Z,555
2016-08-15T11:05:03.169Z,570
2016-08-15T11:06:03.924Z,565
2016-08-15T11:07:03.772Z,550
2016-08-15T11:08:02.286Z,540
2016-08-15T11:09:03.802Z,515
2016-08-15T11:10:03.831Z,495
2016-08-15T11:11:02.509Z,490
2016-08-15T11:12:03.061Z,485
2016-08-15T11:13:03.203Z,490
2016-08-15T11:14:02.427Z,505
2016-08-15T11:15:03.140Z,530
2016-08-15T11:16:03.878Z,520
2016-08-15T11:17:03.901Z,535
2016-08-15T11:18:03.940Z,565
2016-08-15T11:19:03.270Z,575
2016-08-15T11:20:03.342Z,565
2016-08-15T11:21:04.733Z,555
2016-08-15T11:22:03.411Z,570
2016-08-15T11:23:03.371Z,605
2016-08-15T11:24:04.180Z,620
2016-08-15T11:25:04.129Z,650
2016-08-15T11:26:03.443Z,675
2016-08-15T11:27:03.474Z,695
2016-08-15T11:28:04.906Z,705
2016-08-15T11:29:04.921Z,700
2016-08-15T11:30:05.021Z,695
2016-08-15T11:31:05.012Z,690
2016-08-15T11:32:02.232Z,680
2016-08-15T11:33:04.620Z,685
2016-08-15T11:34:04.350Z,705
2016-08-15T11:35:02.957Z,705
2016-08-15T11:36:03.789Z,710
2016-08-15T11:37:03.930Z,710
2016-08-15T11:38:04.482Z,710
2016-08-15T11:39:04.650Z,700
2016-08-15T11:40:04.523Z,695
2016-08-15T11:41:04.559Z,685
2016-08-15T11:42:04.051Z,680
2016-08-15T11:43:03.222Z,680
2016-08-15T11:44:03.225Z,680
2016-08-15T11:45:05.389Z,690
2016-08-15T11:46:04.124Z,700
2016-08-15T11:47:04.701Z,700
2016-08-15T11:48:03.349Z,695
2016-08-15T11:49:04.069Z,690
2016-08-15T11:50:04.102Z,670
2016-08-15T11:51:03.405Z,655
2016-08-15T11:52:02.825Z,650
2016-08-15T11:53:04.208Z,635
2016-08-15T11:54:04.900Z,630
2016-08-15T11:55:04.960Z,625
2016-08-15T11:56:04.959Z,620
2016-08-15T11:57:05.020Z,620
2016-08-15T11:58:04.333Z,620
2016-08-15T11:59:03.642Z,625
2016-08-15T12:00:05.160Z,640
2016-08-15T12:01:05.105Z,630
2016-08-15T12:02:05.331Z,615
2016-08-15T12:03:04.475Z,600
2016-08-15T12:04:05.234Z,575
2016-08-15T12:05:05.231Z,555
2016-08-15T12:06:03.841Z,540
2016-08-15T12:07:04.565Z,525
2016-08-15T12:08:06.032Z,510
2016-08-15T12:09:05.330Z,505
2016-08-15T12:10:05.350Z,500
2016-08-15T12:11:06.081Z,500
2016-08-15T12:12:06.161Z,495
2016-08-15T12:13:05.590Z,495
2016-08-15T12:14:05.460Z,485
2016-08-15T12:15:06.511Z,465
2016-08-15T12:16:05.539Z,445
2016-08-15T12:17:04.201Z,430
2016-08-15T12:18:05.575Z,435
2016-08-15T12:19:06.374Z,450
2016-08-15T12:20:06.352Z,470
2016-08-15T12:21:05.663Z,490
2016-08-15T12:22:05.691Z,500
2016-08-15T12:23:06.411Z,515
2016-08-15T12:24:05.892Z,525
2016-08-15T12:25:06.482Z,535
2016-08-15T12:26:06.560Z,545
2016-08-15T12:27:05.116Z,545
2016-08-15T12:28:05.845Z,540
2016-08-15T12:29:06.591Z,530
2016-08-15T12:30:05.953Z,505
2016-08-15T12:31:05.945Z,490
2016-08-15T12:32:06.714Z,485
2016-08-15T12:33:05.283Z,475
2016-08-15T12:34:05.471Z,470
2016-08-15T12:35:06.093Z,460
2016-08-15T12:36:05.373Z,455
2016-08-15T12:37:06.805Z,455
2016-08-15T12:38:06.136Z,460
2016-08-15T12:39:06.165Z,460
2016-08-15T12:40:05.479Z,470
2016-08-15T12:41:05.502Z,475
2016-08-15T12:42:06.243Z,495
2016-08-15T12:43:06.273Z,530
2016-08-15T12:44:06.291Z,550
2016-08-15T12:45:06.309Z,565
2016-08-15T12:46:05.631Z,580
2016-08-15T12:47:07.301Z,580
2016-08-15T12:48:06.604Z,570
2016-08-15T12:49:06.432Z,560
2016-08-15T12:50:06.500Z,555
2016-08-15T12:51:06.476Z,540
2016-08-15T12:52:05.813Z,520
2016-08-15T12:53:05.836Z,500
2016-08-15T12:54:06.554Z,495
2016-08-15T12:55:07.287Z,485
2016-08-15T12:56:05.194Z,480
2016-08-15T12:57:05.938Z,485
2016-08-15T12:58:05.954Z,475
2016-08-15T12:59:06.756Z,465
2016-08-15T13:00:06.063Z,465
2016-08-15T13:01:06.017Z,485
2016-08-15T13:02:06.774Z,505
2016-08-15T13:03:06.892Z,495
2016-08-15T13:04:06.146Z,480
2016-08-15T13:05:06.867Z,470
2016-08-15T13:06:07.590Z,475
2016-08-15T13:07:07.613Z,490
2016-08-15T13:08:06.205Z,510
2016-08-15T13:09:05.623Z,525
2016-08-15T13:10:07.806Z,530
2016-08-15T13:11:07.014Z,530
2016-08-15T13:12:06.335Z,530
2016-08-15T13:13:07.184Z,525
2016-08-15T13:14:06.426Z,525
2016-08-15T13:15:06.425Z,520
2016-08-15T13:16:07.394Z,520
2016-08-15T13:17:08.165Z,520
2016-08-15T13:18:07.204Z,525
2016-08-15T13:19:06.748Z,530
2016-08-15T13:20:06.657Z,530
2016-08-15T13:21:06.563Z,535
2016-08-15T13:22:08.059Z,535
2016-08-15T13:23:08.232Z,525
2016-08-15T13:24:07.377Z,520
2016-08-15T13:25:07.398Z,510
2016-08-15T13:26:07.577Z,505
2016-08-15T13:27:06.733Z,500
2016-08-15T13:28:07.493Z,495
2016-08-15T13:29:08.226Z,500
2016-08-15T13:30:06.824Z,485
2016-08-15T13:31:06.134Z,485
2016-08-15T13:32:07.674Z,485
2016-08-15T13:33:06.906Z,490
2016-08-15T13:34:07.711Z,485
2016-08-15T13:35:06.262Z,480
2016-08-15T13:36:06.272Z,470
2016-08-15T13:37:08.870Z,445
2016-08-15T13:38:07.756Z,420
2016-08-15T13:39:07.132Z,400
2016-08-15T13:40:06.399Z,365
2016-08-15T13:41:07.180Z,330
2016-08-15T13:42:07.843Z,315
2016-08-15T13:43:07.884Z,305
2016-08-15T13:44:07.893Z,300
2016-08-15T13:45:07.234Z,300
2016-08-15T13:46:08.695Z,300
2016-08-15T13:47:08.717Z,305
2016-08-15T13:48:08.755Z,310
2016-08-15T13:49:08.024Z,320
2016-08-15T13:50:07.432Z,345
2016-08-15T13:51:08.814Z,375
2016-08-15T13:52:08.124Z,400
2016-08-15T13:53:08.832Z,420
2016-08-15T13:54:07.481Z,435
2016-08-15T13:55:08.217Z,450
2016-08-15T13:56:07.515Z,455
2016-08-15T13:57:08.232Z,460
2016-08-15T13:58:08.700Z,465
2016-08-15T13:59:08.433Z,465
2016-08-15T14:00:08.409Z,460
2016-08-15T14:01:08.523Z,460
2016-08-15T14:02:09.076Z,450
2016-08-15T14:03:09.223Z,445
2016-08-15T14:04:09.973Z,430
2016-08-15T14:05:10.799Z,405
2016-08-15T14:06:13.783Z,380